createdAt,value
2022-11-15T00:00:14.031Z,0.00
2022-11-15T00:01:14.280Z,0.00
2022-11-15T00:02:14.050Z,0.00
2022-11-15T00:03:14.325Z,0.00
2022-11-15T00:04:14.008Z,0.00
2022-11-15T00:05:15.207Z,0.00
2022-11-15T00:06:14.011Z,0.00
2022-11-15T00:07:54.594Z,0.00
2022-11-15T00:08:15.080Z,0.00
2022-11-15T00:09:13.776Z,0.00
2022-11-15T00:10:14.022Z,0.00
2022-11-15T00:11:13.785Z,0.00
2022-11-15T00:12:14.037Z,0.00
2022-11-15T00:13:13.771Z,0.00
2022-11-15T00:14:14.015Z,0.00
2022-11-15T00:15:13.751Z,0.00
2022-11-15T00:16:13.994Z,0.00
2022-11-15T00:17:34.003Z,0.00
2022-11-15T00:18:14.005Z,0.00
2022-11-15T00:19:13.752Z,0.00
2022-11-15T00:20:14.002Z,0.00
2022-11-15T00:21:13.765Z,0.00
2022-11-15T00:22:14.029Z,0.00
2022-11-15T00:23:13.766Z,0.00
2022-11-15T00:24:14.012Z,0.00
2022-11-15T00:25:13.759Z,0.00
2022-11-15T00:26:14.006Z,0.00
2022-11-15T00:27:33.783Z,0.00
2022-11-15T00:28:14.010Z,0.00
2022-11-15T00:29:13.736Z,0.00
2022-11-15T00:30:13.986Z,0.00
2022-11-15T00:31:13.745Z,0.00
2022-11-15T00:32:13.986Z,0.00
2022-11-15T00:33:13.727Z,0.00
2022-11-15T00:34:12.995Z,0.00
2022-11-15T00:35:12.956Z,0.00
2022-11-15T00:36:13.709Z,0.00
2022-11-15T00:37:35.425Z,0.00
2022-11-15T00:38:13.729Z,0.00
2022-11-15T00:39:13.462Z,0.00
2022-11-15T00:40:13.728Z,0.00
2022-11-15T00:41:13.487Z,0.00
2022-11-15T00:42:13.742Z,0.00
2022-11-15T00:43:13.498Z,0.00
2022-11-15T00:44:13.597Z,0.00
2022-11-15T00:45:13.851Z,0.00
2022-11-15T00:46:14.619Z,0.00
2022-11-15T00:47:35.352Z,0.00
2022-11-15T00:48:13.620Z,0.00
2022-11-15T00:49:13.401Z,0.00
2022-11-15T00:50:15.375Z,0.00
2022-11-15T00:51:13.399Z,0.00
2022-11-15T00:52:13.639Z,0.00
2022-11-15T00:53:13.469Z,0.00
2022-11-15T00:54:13.710Z,0.00
2022-11-15T00:55:13.449Z,0.00
2022-11-15T00:56:13.711Z,0.00
2022-11-15T00:57:34.129Z,0.00
2022-11-15T00:58:13.239Z,0.00
2022-11-15T00:59:13.496Z,0.00
2022-11-15T01:00:13.260Z,0.00
2022-11-15T01:01:13.521Z,0.00
2022-11-15T01:02:13.250Z,0.00
2022-11-15T01:03:13.494Z,0.00
2022-11-15T01:04:13.260Z,0.00
2022-11-15T01:05:13.497Z,0.00
2022-11-15T01:06:13.249Z,0.00
2022-11-15T01:07:35.075Z,0.00
2022-11-15T01:08:13.266Z,0.00
2022-11-15T01:09:13.516Z,0.00
2022-11-15T01:10:13.261Z,0.00
2022-11-15T01:11:13.502Z,0.00
2022-11-15T01:12:13.237Z,0.00
2022-11-15T01:13:13.485Z,0.00
2022-11-15T01:14:13.232Z,0.00
2022-11-15T01:15:13.482Z,0.00
2022-11-15T01:16:13.234Z,0.00
2022-11-15T01:17:34.959Z,0.00
2022-11-15T01:18:13.246Z,0.00
2022-11-15T01:19:13.012Z,0.00
2022-11-15T01:20:13.289Z,0.00
2022-11-15T01:21:13.049Z,0.00
2022-11-15T01:22:13.295Z,0.00
2022-11-15T01:23:13.046Z,0.00
2022-11-15T01:24:13.340Z,0.00
2022-11-15T01:25:13.084Z,0.00
2022-11-15T01:26:13.355Z,0.00
2022-11-15T01:27:34.575Z,0.00
2022-11-15T01:28:14.808Z,0.00
2022-11-15T01:29:13.114Z,0.00
2022-11-15T01:30:13.392Z,0.00
2022-11-15T01:31:13.476Z,0.00
2022-11-15T01:32:12.886Z,0.00
2022-11-15T01:33:13.138Z,0.00
2022-11-15T01:34:12.889Z,0.00
2022-11-15T01:35:14.083Z,0.00
2022-11-15T01:36:12.868Z,0.00
2022-11-15T01:37:33.238Z,0.00
2022-11-15T01:38:12.930Z,0.00
2022-11-15T01:39:13.179Z,0.00
2022-11-15T01:40:12.941Z,0.00
2022-11-15T01:41:13.457Z,0.00
2022-11-15T01:42:12.952Z,0.00
2022-11-15T01:43:13.186Z,0.00
2022-11-15T01:44:12.922Z,0.00
2022-11-15T01:45:13.183Z,0.00
2022-11-15T01:46:12.919Z,0.00
2022-11-15T01:47:34.153Z,0.00
2022-11-15T01:48:13.887Z,0.00
2022-11-15T01:49:12.671Z,0.00
2022-11-15T01:50:12.929Z,0.00
2022-11-15T01:51:13.169Z,0.00
2022-11-15T01:52:12.922Z,0.00
2022-11-15T01:53:12.653Z,0.00
2022-11-15T01:54:12.905Z,0.00
2022-11-15T01:55:12.643Z,0.00
2022-11-15T01:56:12.895Z,0.00
2022-11-15T01:57:33.206Z,0.00
2022-11-15T01:58:12.920Z,0.00
2022-11-15T01:59:12.674Z,0.00
2022-11-15T02:00:12.935Z,0.00
2022-11-15T02:01:12.882Z,0.00
2022-11-15T02:02:12.913Z,0.00
2022-11-15T02:03:12.655Z,0.00
2022-11-15T02:04:13.439Z,0.00
2022-11-15T02:05:12.663Z,0.00
2022-11-15T02:06:12.905Z,0.00
2022-11-15T02:07:34.284Z,0.00
2022-11-15T02:08:12.976Z,0.00
2022-11-15T02:09:12.718Z,0.00
2022-11-15T02:10:12.540Z,0.00
2022-11-15T02:11:12.708Z,0.00
2022-11-15T02:12:12.456Z,0.00
2022-11-15T02:13:12.701Z,0.00
2022-11-15T02:14:12.455Z,0.00
2022-11-15T02:15:12.688Z,0.00
2022-11-15T02:16:12.451Z,0.00
2022-11-15T02:17:34.214Z,0.00
2022-11-15T02:18:12.489Z,0.00
2022-11-15T02:19:12.740Z,0.00
2022-11-15T02:20:12.498Z,0.00
2022-11-15T02:21:12.738Z,0.00
2022-11-15T02:22:12.487Z,0.00
2022-11-15T02:23:14.681Z,0.00
2022-11-15T02:24:12.500Z,0.00
2022-11-15T02:25:12.742Z,0.00
2022-11-15T02:26:12.481Z,0.00
2022-11-15T02:27:33.198Z,0.00
2022-11-15T02:28:12.554Z,0.00
2022-11-15T02:29:12.417Z,0.00
2022-11-15T02:30:12.561Z,0.00
2022-11-15T02:31:12.312Z,0.00
2022-11-15T02:32:12.566Z,0.00
2022-11-15T02:33:12.488Z,0.00
2022-11-15T02:34:12.555Z,0.00
2022-11-15T02:35:12.283Z,0.00
2022-11-15T02:36:12.574Z,0.00
2022-11-15T02:37:33.014Z,0.00
2022-11-15T02:38:12.632Z,0.00
2022-11-15T02:39:12.307Z,0.00
2022-11-15T02:40:12.665Z,0.00
2022-11-15T02:41:12.306Z,0.00
2022-11-15T02:42:12.551Z,0.00
2022-11-15T02:43:13.255Z,0.00
2022-11-15T02:44:12.576Z,0.00
2022-11-15T02:45:14.248Z,0.00
2022-11-15T02:46:12.546Z,0.00
2022-11-15T02:47:33.285Z,0.00
2022-11-15T02:48:12.918Z,0.00
2022-11-15T02:49:12.334Z,0.00
2022-11-15T02:50:13.000Z,0.00
2022-11-15T02:51:13.287Z,0.00
2022-11-15T02:52:12.065Z,0.00
2022-11-15T02:53:13.236Z,0.00
2022-11-15T02:54:12.071Z,0.00
2022-11-15T02:55:12.305Z,0.00
2022-11-15T02:56:13.035Z,0.00
2022-11-15T02:57:33.815Z,0.00
2022-11-15T02:58:12.105Z,0.00
2022-11-15T02:59:12.397Z,0.00
2022-11-15T03:00:12.435Z,0.00
2022-11-15T03:01:12.412Z,0.00
2022-11-15T03:02:12.459Z,0.00
2022-11-15T03:03:12.707Z,0.00
2022-11-15T03:04:12.116Z,0.00
2022-11-15T03:05:12.350Z,0.00
2022-11-15T03:06:12.252Z,0.00
2022-11-15T03:07:33.932Z,0.00
2022-11-15T03:08:12.217Z,0.00
2022-11-15T03:09:13.410Z,0.00
2022-11-15T03:10:12.294Z,0.00
2022-11-15T03:11:12.057Z,0.00
2022-11-15T03:12:12.525Z,0.00
2022-11-15T03:13:12.105Z,0.00
2022-11-15T03:14:11.860Z,0.00
2022-11-15T03:15:12.706Z,0.00
2022-11-15T03:16:12.027Z,0.00
2022-11-15T03:17:33.706Z,0.00
2022-11-15T03:18:12.056Z,0.00
2022-11-15T03:19:11.857Z,0.00
2022-11-15T03:20:12.133Z,0.00
2022-11-15T03:21:12.586Z,0.00
2022-11-15T03:22:12.201Z,0.00
2022-11-15T03:23:11.934Z,0.00
2022-11-15T03:24:13.137Z,0.00
2022-11-15T03:25:11.974Z,0.00
2022-11-15T03:26:11.747Z,0.00
2022-11-15T03:27:32.721Z,0.00
2022-11-15T03:28:11.920Z,0.00
2022-11-15T03:29:12.129Z,0.00
2022-11-15T03:30:11.981Z,0.00
2022-11-15T03:31:13.108Z,0.00
2022-11-15T03:32:11.948Z,0.00
2022-11-15T03:33:11.730Z,0.00
2022-11-15T03:34:12.000Z,0.00
2022-11-15T03:35:11.799Z,0.00
2022-11-15T03:36:13.455Z,0.00
2022-11-15T03:37:32.913Z,0.00
2022-11-15T03:38:11.793Z,0.00
2022-11-15T03:39:16.280Z,0.00
2022-11-15T03:40:12.792Z,0.00
2022-11-15T03:41:11.571Z,0.00
2022-11-15T03:42:13.276Z,0.00
2022-11-15T03:43:11.564Z,0.00
2022-11-15T03:44:11.796Z,0.00
2022-11-15T03:45:13.006Z,0.00
2022-11-15T03:46:11.809Z,0.00
2022-11-15T03:47:33.058Z,0.00
2022-11-15T03:48:11.888Z,0.00
2022-11-15T03:49:11.578Z,0.00
2022-11-15T03:50:11.826Z,0.00
2022-11-15T03:51:11.896Z,0.00
2022-11-15T03:52:12.788Z,0.00
2022-11-15T03:53:11.594Z,0.00
2022-11-15T03:54:11.900Z,0.00
2022-11-15T03:55:12.230Z,0.00
2022-11-15T03:56:11.351Z,0.00
2022-11-15T03:57:33.111Z,0.00
2022-11-15T03:58:11.403Z,0.00
2022-11-15T03:59:12.654Z,0.00
2022-11-15T04:00:11.391Z,0.00
2022-11-15T04:01:12.629Z,0.00
2022-11-15T04:02:11.402Z,0.00
2022-11-15T04:03:11.669Z,0.00
2022-11-15T04:04:11.408Z,0.00
2022-11-15T04:05:11.650Z,0.00
2022-11-15T04:06:12.344Z,0.00
2022-11-15T04:07:32.319Z,0.00
2022-11-15T04:08:11.467Z,0.00
2022-11-15T04:09:12.633Z,0.00
2022-11-15T04:10:12.359Z,0.00
2022-11-15T04:11:12.625Z,0.00
2022-11-15T04:12:12.368Z,0.00
2022-11-15T04:13:12.605Z,0.00
2022-11-15T04:14:13.334Z,0.00
2022-11-15T04:15:12.616Z,0.00
2022-11-15T04:16:11.416Z,0.00
2022-11-15T04:17:32.660Z,0.00
2022-11-15T04:18:12.386Z,0.00
2022-11-15T04:19:11.200Z,0.00
2022-11-15T04:20:11.470Z,0.00
2022-11-15T04:21:12.130Z,0.00
2022-11-15T04:22:11.467Z,0.00
2022-11-15T04:23:11.205Z,0.00
2022-11-15T04:24:12.384Z,0.00
2022-11-15T04:25:11.178Z,0.00
2022-11-15T04:26:11.450Z,0.00
2022-11-15T04:27:32.677Z,0.00
2022-11-15T04:28:12.406Z,0.00
2022-11-15T04:29:11.232Z,0.00
2022-11-15T04:30:11.474Z,0.00
2022-11-15T04:31:11.237Z,0.00
2022-11-15T04:32:11.010Z,0.00
2022-11-15T04:33:11.456Z,0.00
2022-11-15T04:34:11.129Z,0.00
2022-11-15T04:35:11.252Z,0.00
2022-11-15T04:36:10.989Z,0.00
2022-11-15T04:37:31.791Z,0.00
2022-11-15T04:38:11.052Z,0.00
2022-11-15T04:39:11.291Z,0.00
2022-11-15T04:40:11.052Z,0.00
2022-11-15T04:41:11.284Z,0.00
2022-11-15T04:42:11.026Z,0.00
2022-11-15T04:43:11.282Z,0.00
2022-11-15T04:44:11.972Z,0.00
2022-11-15T04:45:11.270Z,0.00
2022-11-15T04:46:11.015Z,0.00
2022-11-15T04:47:31.992Z,0.00
2022-11-15T04:48:11.115Z,0.00
2022-11-15T04:49:10.863Z,0.00
2022-11-15T04:50:11.108Z,0.00
2022-11-15T04:51:10.850Z,0.00
2022-11-15T04:52:11.110Z,0.00
2022-11-15T04:53:10.857Z,0.00
2022-11-15T04:54:12.051Z,0.00
2022-11-15T04:55:10.838Z,0.00
2022-11-15T04:56:11.085Z,0.00
2022-11-15T04:57:32.320Z,0.00
2022-11-15T04:58:11.121Z,0.00
2022-11-15T04:59:10.841Z,0.00
2022-11-15T05:00:12.012Z,0.00
2022-11-15T05:01:10.873Z,0.00
2022-11-15T05:02:11.075Z,0.00
2022-11-15T05:03:10.824Z,0.00
2022-11-15T05:04:11.083Z,0.00
2022-11-15T05:05:10.819Z,0.00
2022-11-15T05:06:11.076Z,0.00
2022-11-15T05:07:32.398Z,0.00
2022-11-15T05:08:10.656Z,0.00
2022-11-15T05:09:10.907Z,0.00
2022-11-15T05:10:11.175Z,0.00
2022-11-15T05:11:10.917Z,0.00
2022-11-15T05:12:10.649Z,0.00
2022-11-15T05:13:12.837Z,0.00
2022-11-15T05:14:10.652Z,0.00
2022-11-15T05:15:10.908Z,0.00
2022-11-15T05:16:10.672Z,0.00
2022-11-15T05:17:31.019Z,0.00
2022-11-15T05:18:10.725Z,0.00
2022-11-15T05:19:11.885Z,0.00
2022-11-15T05:20:10.696Z,0.00
2022-11-15T05:21:10.941Z,0.00
2022-11-15T05:22:10.679Z,0.00
2022-11-15T05:23:10.428Z,0.00
2022-11-15T05:24:10.687Z,0.00
2022-11-15T05:25:10.936Z,0.00
2022-11-15T05:26:10.679Z,0.00
2022-11-15T05:27:32.462Z,0.00
2022-11-15T05:28:10.762Z,0.00
2022-11-15T05:29:10.487Z,0.00
2022-11-15T05:30:10.758Z,0.00
2022-11-15T05:31:10.476Z,0.00
2022-11-15T05:32:10.718Z,0.00
2022-11-15T05:33:10.451Z,0.00
2022-11-15T05:34:10.704Z,0.00
2022-11-15T05:35:10.442Z,0.00
2022-11-15T05:36:11.640Z,0.00
2022-11-15T05:37:31.311Z,0.00
2022-11-15T05:38:10.745Z,0.00
2022-11-15T05:39:10.483Z,0.00
2022-11-15T05:40:10.708Z,0.00
2022-11-15T05:41:10.446Z,0.00
2022-11-15T05:42:10.696Z,0.00
2022-11-15T05:43:11.390Z,0.00
2022-11-15T05:44:10.684Z,0.00
2022-11-15T05:45:10.413Z,0.00
2022-11-15T05:46:11.646Z,0.00
2022-11-15T05:47:30.543Z,0.00
2022-11-15T05:48:11.167Z,0.00
2022-11-15T05:49:10.456Z,0.00
2022-11-15T05:50:10.209Z,0.00
2022-11-15T05:51:10.465Z,0.00
2022-11-15T05:52:10.196Z,0.00
2022-11-15T05:53:10.448Z,0.00
2022-11-15T05:54:10.186Z,0.00
2022-11-15T05:55:11.378Z,0.00
2022-11-15T05:56:10.180Z,0.00
2022-11-15T05:57:31.901Z,0.00
2022-11-15T05:58:10.176Z,0.00
2022-11-15T05:59:10.438Z,0.00
2022-11-15T06:00:10.189Z,0.00
2022-11-15T06:01:10.418Z,0.00
2022-11-15T06:02:10.206Z,0.00
2022-11-15T06:03:10.405Z,0.00
2022-11-15T06:04:10.161Z,0.00
2022-11-15T06:05:10.389Z,0.00
2022-11-15T06:06:15.180Z,0.00
2022-11-15T06:07:31.469Z,0.00
2022-11-15T06:08:10.151Z,0.00
2022-11-15T06:09:10.389Z,0.00
2022-11-15T06:10:10.133Z,0.00
2022-11-15T06:11:10.382Z,0.00
2022-11-15T06:12:10.123Z,0.00
2022-11-15T06:13:10.380Z,0.00
2022-11-15T06:14:10.127Z,0.00
2022-11-15T06:15:10.375Z,0.00
2022-11-15T06:16:10.138Z,0.00
2022-11-15T06:17:30.400Z,0.00
2022-11-15T06:18:10.109Z,1.00
2022-11-15T06:19:10.353Z,1.00
2022-11-15T06:20:10.106Z,1.00
2022-11-15T06:21:09.849Z,1.00
2022-11-15T06:22:10.096Z,1.00
2022-11-15T06:23:09.839Z,1.00
2022-11-15T06:24:10.183Z,0.00
2022-11-15T06:25:09.839Z,2.00
2022-11-15T06:26:11.071Z,2.00
2022-11-15T06:27:29.842Z,2.00
2022-11-15T06:28:10.078Z,0.00
2022-11-15T06:29:10.794Z,0.00
2022-11-15T06:30:10.064Z,0.00
2022-11-15T06:31:09.798Z,2.00
2022-11-15T06:32:10.050Z,1.00
2022-11-15T06:33:09.795Z,3.00
2022-11-15T06:34:10.042Z,9.00
2022-11-15T06:35:09.805Z,5.00
2022-11-15T06:36:16.123Z,4.00
2022-11-15T06:37:30.798Z,15.00
2022-11-15T06:38:10.027Z,6.00
2022-11-15T06:39:09.756Z,7.00
2022-11-15T06:40:09.997Z,8.00
2022-11-15T06:41:09.736Z,10.00
2022-11-15T06:42:10.928Z,12.00
2022-11-15T06:43:09.728Z,15.00
2022-11-15T06:44:09.980Z,17.00
2022-11-15T06:45:09.735Z,20.00
2022-11-15T06:46:09.986Z,24.00
2022-11-15T06:47:29.779Z,25.00
2022-11-15T06:48:10.929Z,39.00
2022-11-15T06:49:10.073Z,61.00
2022-11-15T06:50:09.961Z,64.00
2022-11-15T06:51:09.715Z,84.00
2022-11-15T06:52:09.989Z,74.00
2022-11-15T06:53:09.740Z,102.00
2022-11-15T06:54:09.490Z,119.00
2022-11-15T06:55:09.733Z,124.00
2022-11-15T06:56:09.479Z,129.00
2022-11-15T06:57:29.752Z,129.00
2022-11-15T06:58:09.491Z,125.00
2022-11-15T06:59:09.761Z,128.00
2022-11-15T07:00:09.524Z,117.00
2022-11-15T07:01:09.768Z,120.00
2022-11-15T07:02:09.496Z,122.00
2022-11-15T07:03:09.738Z,118.00
2022-11-15T07:04:09.498Z,117.00
2022-11-15T07:05:09.723Z,120.00
2022-11-15T07:06:09.484Z,137.00
2022-11-15T07:07:29.764Z,126.00
2022-11-15T07:08:09.474Z,118.00
2022-11-15T07:09:09.724Z,120.00
2022-11-15T07:10:09.470Z,110.00
2022-11-15T07:11:09.737Z,117.00
2022-11-15T07:12:09.497Z,115.00
2022-11-15T07:13:09.747Z,114.00
2022-11-15T07:14:09.481Z,119.00
2022-11-15T07:15:09.735Z,158.00
2022-11-15T07:16:09.499Z,179.00
2022-11-15T07:17:29.760Z,209.00
2022-11-15T07:18:09.505Z,235.00
2022-11-15T07:19:09.247Z,233.00
2022-11-15T07:20:09.491Z,251.00
2022-11-15T07:21:09.255Z,260.00
2022-11-15T07:22:09.481Z,298.00
2022-11-15T07:23:09.230Z,338.00
2022-11-15T07:24:09.475Z,403.00
2022-11-15T07:25:09.234Z,474.00
2022-11-15T07:26:09.456Z,570.00
2022-11-15T07:27:29.243Z,712.00
2022-11-15T07:28:09.463Z,779.00
2022-11-15T07:29:09.202Z,866.00
2022-11-15T07:30:09.425Z,932.00
2022-11-15T07:31:09.188Z,986.00
2022-11-15T07:32:09.417Z,1050.00
2022-11-15T07:33:09.172Z,1103.00
2022-11-15T07:34:09.423Z,1147.00
2022-11-15T07:35:09.163Z,1192.00
2022-11-15T07:36:09.411Z,1228.00
2022-11-15T07:37:29.178Z,1304.00
2022-11-15T07:38:09.423Z,1336.00
2022-11-15T07:39:09.179Z,1364.00
2022-11-15T07:40:09.427Z,1400.00
2022-11-15T07:41:09.152Z,1451.00
2022-11-15T07:42:09.400Z,1539.00
2022-11-15T07:43:09.125Z,1594.00
2022-11-15T07:44:09.375Z,1626.00
2022-11-15T07:45:09.113Z,1614.00
2022-11-15T07:46:09.375Z,1588.00
2022-11-15T07:47:29.128Z,1586.00
2022-11-15T07:48:09.392Z,1580.00
2022-11-15T07:49:09.110Z,1620.00
2022-11-15T07:50:09.381Z,1701.00
2022-11-15T07:51:13.889Z,1793.00
2022-11-15T07:52:10.361Z,1887.00
2022-11-15T07:53:09.095Z,1967.00
2022-11-15T07:54:09.363Z,2002.00
2022-11-15T07:55:10.067Z,2038.00
2022-11-15T07:56:09.336Z,2074.00
2022-11-15T07:57:29.053Z,2145.00
2022-11-15T07:58:09.310Z,2171.00
2022-11-15T07:59:09.045Z,2226.00
2022-11-15T08:00:09.304Z,2286.00
2022-11-15T08:01:09.224Z,2332.00
2022-11-15T08:02:08.878Z,2400.00
2022-11-15T08:03:09.018Z,2471.00
2022-11-15T08:04:08.755Z,2510.00
2022-11-15T08:05:09.025Z,2571.00
2022-11-15T08:06:08.759Z,2622.00
2022-11-15T08:07:29.127Z,2583.00
2022-11-15T08:08:08.748Z,2570.00
2022-11-15T08:09:08.983Z,2607.00
2022-11-15T08:10:08.766Z,2721.00
2022-11-15T08:11:08.986Z,2801.00
2022-11-15T08:12:08.718Z,2850.00
2022-11-15T08:13:09.024Z,2930.00
2022-11-15T08:14:08.721Z,3002.00
2022-11-15T08:15:08.986Z,3106.00
2022-11-15T08:16:08.738Z,3269.00
2022-11-15T08:17:28.998Z,3457.00
2022-11-15T08:18:08.723Z,3543.00
2022-11-15T08:19:08.979Z,3722.00
2022-11-15T08:20:08.721Z,4073.00
2022-11-15T08:21:10.351Z,4459.00
2022-11-15T08:22:08.712Z,4628.00
2022-11-15T08:23:09.325Z,5520.00
2022-11-15T08:24:08.742Z,8153.00
2022-11-15T08:25:08.973Z,6640.00
2022-11-15T08:26:08.724Z,6876.00
2022-11-15T08:27:29.120Z,8732.00
2022-11-15T08:28:08.719Z,9122.00
2022-11-15T08:29:08.981Z,8052.00
2022-11-15T08:30:08.727Z,5061.00
2022-11-15T08:31:08.446Z,4461.00
2022-11-15T08:32:08.686Z,4362.00
2022-11-15T08:33:08.436Z,4468.00
2022-11-15T08:34:08.671Z,4774.00
2022-11-15T08:35:08.900Z,5592.00
2022-11-15T08:36:08.687Z,8057.00
2022-11-15T08:37:28.920Z,13114.00
2022-11-15T08:38:08.658Z,13415.00
2022-11-15T08:39:08.399Z,13226.00
2022-11-15T08:40:08.647Z,11258.00
2022-11-15T08:41:08.381Z,13353.00
2022-11-15T08:42:08.621Z,16530.00
2022-11-15T08:43:08.362Z,20427.00
2022-11-15T08:44:08.619Z,16821.00
2022-11-15T08:45:08.347Z,14718.00
2022-11-15T08:46:08.601Z,13667.00
2022-11-15T08:47:28.347Z,13340.00
2022-11-15T08:48:08.572Z,16442.00
2022-11-15T08:49:08.338Z,15088.00
2022-11-15T08:50:08.566Z,16907.00
2022-11-15T08:51:08.308Z,19328.00
2022-11-15T08:52:08.549Z,17124.00
2022-11-15T08:53:08.301Z,12581.00
2022-11-15T08:54:09.533Z,12759.00
2022-11-15T08:55:08.270Z,17169.00
2022-11-15T08:56:08.566Z,18358.00
2022-11-15T08:57:28.795Z,13924.00
2022-11-15T08:58:08.503Z,14036.00
2022-11-15T08:59:08.251Z,13037.00
2022-11-15T09:00:08.499Z,12210.00
2022-11-15T09:01:08.284Z,11273.00
2022-11-15T09:02:08.550Z,12414.00
2022-11-15T09:03:08.281Z,14991.00
2022-11-15T09:04:08.503Z,15559.00
2022-11-15T09:05:08.236Z,16290.00
2022-11-15T09:06:08.490Z,23202.00
2022-11-15T09:07:28.263Z,17950.00
2022-11-15T09:08:25.571Z,20630.00
2022-11-15T09:09:09.190Z,19327.00
2022-11-15T09:10:08.436Z,19276.00
2022-11-15T09:11:08.198Z,17191.00
2022-11-15T09:12:08.437Z,19913.00
2022-11-15T09:13:08.173Z,16816.00
2022-11-15T09:14:08.414Z,15920.00
2022-11-15T09:15:08.157Z,17030.00
2022-11-15T09:16:08.390Z,17655.00
2022-11-15T09:17:28.159Z,13713.00
2022-11-15T09:18:07.472Z,13595.00
2022-11-15T09:19:11.653Z,20452.00
2022-11-15T09:20:07.490Z,19579.00
2022-11-15T09:21:07.450Z,10553.00
2022-11-15T09:22:07.434Z,7819.00
2022-11-15T09:23:07.430Z,11018.00
2022-11-15T09:24:07.406Z,11999.00
2022-11-15T09:25:10.958Z,8865.00
2022-11-15T09:26:07.430Z,12864.00
2022-11-15T09:27:27.432Z,16579.00
2022-11-15T09:28:07.377Z,18450.00
2022-11-15T09:29:08.415Z,15982.00
2022-11-15T09:30:07.360Z,9907.00
2022-11-15T09:31:08.103Z,12630.00
2022-11-15T09:32:07.367Z,15945.00
2022-11-15T09:33:08.118Z,13714.00
2022-11-15T09:34:07.857Z,15587.00
2022-11-15T09:35:08.122Z,15959.00
2022-11-15T09:36:07.867Z,16042.00
2022-11-15T09:37:28.110Z,23489.00
2022-11-15T09:38:07.852Z,30428.00
2022-11-15T09:39:08.093Z,33000.00
2022-11-15T09:40:07.850Z,28667.00
2022-11-15T09:41:08.143Z,30641.00
2022-11-15T09:42:07.834Z,25295.00
2022-11-15T09:43:08.093Z,26168.00
2022-11-15T09:44:07.815Z,31179.00
2022-11-15T09:45:08.056Z,35097.00
2022-11-15T09:46:07.802Z,33525.00
2022-11-15T09:47:28.071Z,39414.00
2022-11-15T09:48:07.787Z,43790.00
2022-11-15T09:49:08.026Z,43553.00
2022-11-15T09:50:07.785Z,30070.00
2022-11-15T09:51:08.007Z,41818.00
2022-11-15T09:52:07.760Z,42060.00
2022-11-15T09:53:07.998Z,39700.00
2022-11-15T09:55:53.298Z,40172.00
2022-11-15T09:55:59.582Z,38982.00
2022-11-15T09:56:59.921Z,37227.00
2022-11-15T09:58:18.744Z,38389.00
2022-11-15T09:59:00.008Z,36090.00
2022-11-15T10:00:23.721Z,39495.00
2022-11-15T10:00:59.870Z,42241.00
2022-11-15T10:02:00.391Z,45516.00
2022-11-15T10:03:00.242Z,40715.00
2022-11-15T10:03:59.098Z,34056.00
2022-11-15T10:05:00.317Z,30536.00
2022-11-15T10:06:00.107Z,29366.00
2022-11-15T10:06:59.536Z,30630.00
2022-11-15T10:08:18.695Z,30030.00
2022-11-15T10:08:59.956Z,30731.00
2022-11-15T10:10:00.236Z,31087.00
2022-11-15T10:11:30.469Z,28011.00
2022-11-15T10:12:00.481Z,32015.00
2022-11-15T10:13:00.140Z,30416.00
2022-11-15T10:13:59.929Z,41470.00
2022-11-15T10:15:00.305Z,45212.00
2022-11-15T10:15:59.432Z,40042.00
2022-11-15T10:16:58.560Z,23341.00
2022-11-15T10:18:18.768Z,31827.00
2022-11-15T10:18:58.702Z,23561.00
2022-11-15T10:20:04.079Z,9567.00
2022-11-15T10:21:00.563Z,8893.00
2022-11-15T10:21:59.848Z,10735.00
2022-11-15T10:22:59.195Z,12217.00
2022-11-15T10:23:59.467Z,14082.00
2022-11-15T10:24:59.811Z,13296.00
2022-11-15T10:26:03.783Z,16899.00
2022-11-15T10:27:00.860Z,17487.00
2022-11-15T10:28:18.697Z,17537.00
2022-11-15T10:28:57.979Z,14252.00
2022-11-15T10:29:58.981Z,10799.00
2022-11-15T10:30:59.861Z,10155.00
2022-11-15T10:31:58.772Z,9462.00
2022-11-15T10:32:59.995Z,8891.00
2022-11-15T10:33:59.749Z,9251.00
2022-11-15T10:35:00.078Z,11391.00
2022-11-15T10:35:58.973Z,14901.00
2022-11-15T10:36:59.662Z,25426.00
2022-11-15T10:38:18.487Z,26781.00
2022-11-15T10:38:59.730Z,28472.00
2022-11-15T10:40:00.044Z,33189.00
2022-11-15T10:40:59.869Z,37260.00
2022-11-15T10:42:01.849Z,36968.00
2022-11-15T10:42:58.514Z,43915.00
2022-11-15T10:43:59.748Z,56081.00
2022-11-15T10:45:00.119Z,51379.00
2022-11-15T11:04:32.404Z,40383.00
2022-11-15T11:04:37.176Z,40463.00
2022-11-15T11:05:59.466Z,46372.00
2022-11-15T11:06:37.775Z,36147.00
2022-11-15T11:07:38.080Z,30854.00
2022-11-15T11:08:37.755Z,28668.00
2022-11-15T11:09:38.013Z,24670.00
2022-11-15T11:10:51.437Z,22636.00
2022-11-15T11:11:38.995Z,36553.00
2022-11-15T11:12:37.747Z,47256.00
2022-11-15T11:16:07.009Z,49407.00
2022-11-15T11:16:11.834Z,47708.00
2022-11-15T11:17:32.603Z,48298.00
2022-11-15T11:18:12.305Z,49662.00
2022-11-15T11:21:16.050Z,53463.00
2022-11-15T11:21:22.657Z,47909.00
2022-11-15T11:22:21.579Z,45328.00
2022-11-15T11:23:21.331Z,34978.00
2022-11-15T11:24:21.581Z,48998.00
2022-11-15T11:25:21.334Z,47206.00
2022-11-15T11:26:21.565Z,37262.00
2022-11-15T11:27:21.316Z,31419.00
2022-11-15T11:28:42.526Z,48900.00
2022-11-15T11:29:21.314Z,35544.00
2022-11-15T11:30:21.577Z,44778.00
2022-11-15T11:31:21.308Z,36546.00
2022-11-15T11:32:21.579Z,39197.00
2022-11-15T11:33:21.350Z,49102.00
2022-11-15T11:34:24.548Z,53349.00
2022-11-15T11:35:21.304Z,41280.00
2022-11-15T11:36:21.547Z,41381.00
2022-11-15T11:37:21.308Z,40139.00
2022-11-15T11:38:42.027Z,35472.00
2022-11-15T11:39:21.295Z,31570.00
2022-11-15T11:40:21.529Z,19724.00
2022-11-15T11:41:21.283Z,18100.00
2022-11-15T11:42:21.528Z,29691.00
2022-11-15T11:43:21.274Z,21569.00
2022-11-15T11:44:21.534Z,17250.00
2022-11-15T11:45:21.287Z,24177.00
2022-11-15T11:46:21.527Z,21376.00
2022-11-15T11:47:21.269Z,13767.00
2022-11-15T11:48:41.589Z,10318.00
2022-11-15T11:49:21.270Z,10540.00
2022-11-15T11:50:21.518Z,9718.00
2022-11-15T11:51:21.351Z,11573.00
2022-11-15T11:52:21.038Z,20909.00
2022-11-15T11:53:21.274Z,11322.00
2022-11-15T11:54:21.034Z,9807.00
2022-11-15T11:55:21.320Z,9106.00
2022-11-15T11:56:21.046Z,9253.00
2022-11-15T11:57:21.305Z,10157.00
2022-11-15T11:58:41.130Z,28659.00
2022-11-15T11:59:21.285Z,22865.00
2022-11-15T12:00:21.016Z,27820.00
2022-11-15T12:01:21.244Z,18213.00
2022-11-15T12:02:21.134Z,11274.00
2022-11-15T12:03:21.240Z,12635.00
2022-11-15T12:04:20.963Z,8310.00
2022-11-15T12:05:21.191Z,8241.00
2022-11-15T12:06:20.917Z,7901.00
2022-11-15T12:07:21.270Z,7954.00
2022-11-15T12:08:41.437Z,7858.00
2022-11-15T12:09:21.161Z,9470.00
2022-11-15T12:10:20.893Z,8208.00
2022-11-15T12:11:23.096Z,8449.00
2022-11-15T12:12:20.890Z,9292.00
2022-11-15T12:13:21.129Z,8893.00
2022-11-15T12:14:20.879Z,14027.00
2022-11-15T12:15:21.113Z,8407.00
2022-11-15T12:16:20.866Z,7004.00
2022-11-15T12:17:21.111Z,6789.00
2022-11-15T12:18:40.867Z,5913.00
2022-11-15T12:19:21.082Z,5711.00
2022-11-15T12:20:20.879Z,5472.00
2022-11-15T12:21:27.027Z,5262.00
2022-11-15T12:22:21.820Z,5104.00
2022-11-15T12:23:21.041Z,5052.00
2022-11-15T12:24:20.786Z,4907.00
2022-11-15T12:25:21.022Z,4783.00
2022-11-15T12:26:20.779Z,4706.00
2022-11-15T12:27:26.382Z,4620.00
2022-11-15T12:28:53.164Z,4533.00
2022-11-15T12:29:21.912Z,4507.00
2022-11-15T12:30:21.315Z,4527.00
2022-11-15T12:31:21.097Z,4575.00
2022-11-15T12:32:20.847Z,4571.00
2022-11-15T12:33:20.582Z,4592.00
2022-11-15T12:34:20.829Z,4551.00
2022-11-15T12:35:20.555Z,4570.00
2022-11-15T12:36:20.796Z,4541.00
2022-11-15T12:37:28.348Z,4524.00
2022-11-15T12:38:40.584Z,4485.00
2022-11-15T12:39:20.993Z,4440.00
2022-11-15T12:40:20.696Z,4458.00
2022-11-15T12:41:21.167Z,4405.00
2022-11-15T12:42:20.833Z,4433.00
2022-11-15T12:43:20.594Z,4464.00
2022-11-15T12:44:20.820Z,4481.00
2022-11-15T12:45:20.550Z,4531.00
2022-11-15T12:46:20.817Z,4526.00
2022-11-15T12:47:23.164Z,4541.00
2022-11-15T12:48:40.802Z,4362.00
2022-11-15T12:49:20.520Z,4277.00
2022-11-15T12:50:20.773Z,4186.00
2022-11-15T12:51:20.518Z,4013.00
2022-11-15T12:52:20.765Z,3785.00
2022-11-15T12:53:20.522Z,3561.00
2022-11-15T12:54:20.757Z,3302.00
2022-11-15T12:55:20.495Z,3068.00
2022-11-15T12:56:20.762Z,2832.00
2022-11-15T12:57:20.502Z,2599.00
2022-11-15T12:58:40.768Z,2450.00
2022-11-15T12:59:20.495Z,2423.00